Time;durP1;ratioP1;P1;durP2;ratioP2;P2;SDS_P1;SDS_P2;PMS_P1;PMS_P2;Temp;Humidity;BMP_temperature;BMP_pressure;BME280_temperature;BME280_humidity;BME280_pressure;Samples;Min_cycle;Max_cycle;Signal;HPM_P1;HPM_P2
2023/03/18 00:00:21;;;;;;;1.50;1.10;;;7.70;99.90;;;;;;5058749;28;20453;-84
2023/03/18 00:02:48;;;;;;;1.83;1.27;;;7.90;99.90;;;;;;5054144;28;20446;-84
2023/03/18 00:05:15;;;;;;;2.17;1.20;;;7.80;99.90;;;;;;5053924;28;20504;-84
2023/03/18 00:07:44;;;;;;;2.07;1.10;;;7.70;99.90;;;;;;5053276;28;20873;-84
2023/03/18 00:10:11;;;;;;;1.20;0.90;;;7.60;99.90;;;;;;5053229;28;20426;-85
2023/03/18 00:12:39;;;;;;;1.17;0.70;;;7.70;99.90;;;;;;5053105;28;20488;-84
2023/03/18 00:15:07;;;;;;;2.50;1.10;;;7.80;99.90;;;;;;5070731;28;20568;-86
2023/03/18 00:17:34;;;;;;;1.20;0.80;;;7.80;99.90;;;;;;5062034;28;20481;-84
2023/03/18 00:20:04;;;;;;;1.90;1.40;;;7.70;99.90;;;;;;5053918;28;20437;-84
2023/03/18 00:22:32;;;;;;;1.57;1.43;;;7.70;99.90;;;;;;5052503;28;20460;-84
2023/03/18 00:25:00;;;;;;;3.63;1.00;;;7.70;99.90;;;;;;5052225;28;20527;-84
2023/03/18 00:27:29;;;;;;;1.90;1.30;;;7.40;99.90;;;;;;5052377;28;20450;-84
2023/03/18 00:29:56;;;;;;;1.53;1.03;;;7.00;99.90;;;;;;5052578;28;20450;-84
2023/03/18 00:32:25;;;;;;;1.60;1.23;;;7.00;99.90;;;;;;5052067;28;20572;-84
2023/03/18 00:34:52;;;;;;;3.00;1.03;;;7.10;99.90;;;;;;5052569;28;20469;-84
2023/03/18 00:37:29;;;;;;;2.07;1.10;;;7.10;99.90;;;;;;5052296;28;20446;-84
2023/03/18 00:39:56;;;;;;;1.63;1.00;;;7.10;99.90;;;;;;5052774;28;20499;-84
2023/03/18 00:42:25;;;;;;;1.47;1.30;;;7.20;99.90;;;;;;5051888;28;20564;-84
2023/03/18 00:44:52;;;;;;;1.40;1.17;;;7.10;99.90;;;;;;5052372;28;20551;-84
2023/03/18 00:47:20;;;;;;;3.93;1.03;;;6.90;99.90;;;;;;5052118;28;20446;-83
2023/03/18 00:49:47;;;;;;;1.40;0.93;;;6.90;99.90;;;;;;5051683;28;20446;-84
2023/03/18 00:52:14;;;;;;;3.27;1.10;;;7.00;99.90;;;;;;5051898;28;20509;-84
2023/03/18 00:54:41;;;;;;;2.30;1.00;;;7.00;99.90;;;;;;5051568;28;20919;-83
2023/03/18 00:57:09;;;;;;;1.80;1.10;;;7.20;99.90;;;;;;5044119;28;20523;-86
2023/03/18 00:59:37;;;;;;;1.30;1.00;;;7.20;99.90;;;;;;5041612;28;20737;-85
2023/03/18 01:02:04;;;;;;;1.33;1.10;;;7.10;99.90;;;;;;5051882;28;20954;-85
2023/03/18 01:04:32;;;;;;;2.20;1.07;;;7.10;99.90;;;;;;5044683;28;20494;-85
2023/03/18 01:07:00;;;;;;;2.13;1.47;;;7.00;99.90;;;;;;5041800;28;20529;-85
2023/03/18 01:09:27;;;;;;;2.47;1.30;;;7.00;99.90;;;;;;5043806;28;20445;-86
2023/03/18 01:11:54;;;;;;;2.60;1.40;;;7.00;99.90;;;;;;5047353;28;20561;-85
2023/03/18 01:14:21;;;;;;;3.03;1.40;;;7.20;99.90;;;;;;5050897;28;20492;-85
2023/03/18 01:16:49;;;;;;;3.63;1.20;;;7.30;99.90;;;;;;5052742;28;20484;-85
2023/03/18 01:19:16;;;;;;;1.50;1.00;;;7.10;99.90;;;;;;5042146;28;20473;-84
2023/03/18 01:21:43;;;;;;;1.23;1.00;;;6.70;99.90;;;;;;5044275;28;20496;-86
2023/03/18 01:24:10;;;;;;;2.10;1.40;;;6.80;99.90;;;;;;5043250;28;20553;-84
2023/03/18 01:26:37;;;;;;;1.40;1.00;;;6.90;99.90;;;;;;5041083;28;20445;-85
2023/03/18 01:29:04;;;;;;;2.80;1.00;;;6.90;99.90;;;;;;5045753;28;21000;-84
2023/03/18 01:31:33;;;;;;;1.30;0.80;;;7.10;99.90;;;;;;5046100;28;20564;-86
2023/03/18 01:34:02;;;;;;;1.37;0.90;;;7.20;99.90;;;;;;5044593;28;20951;-85
2023/03/18 01:36:29;;;;;;;1.83;1.20;;;6.90;99.90;;;;;;5046825;28;20493;-84
2023/03/18 01:38:56;;;;;;;1.30;0.83;;;6.90;99.90;;;;;;5041149;28;20977;-85
2023/03/18 01:41:24;;;;;;;4.10;1.07;;;6.70;99.90;;;;;;5044159;28;20450;-84
2023/03/18 01:43:53;;;;;;;2.47;0.90;;;6.60;99.90;;;;;;5042121;28;20449;-85
2023/03/18 01:46:39;;;;;;;1.63;1.40;;;6.60;99.90;;;;;;5052012;28;20485;-85
2023/03/18 01:49:12;;;;;;;2.33;1.43;;;6.60;99.90;;;;;;5043550;28;20477;-85
2023/03/18 01:51:41;;;;;;;3.87;1.90;;;6.40;99.90;;;;;;5046609;28;20535;-85
2023/03/18 01:54:09;;;;;;;2.13;1.30;;;6.40;99.90;;;;;;5042876;28;21022;-87
2023/03/18 01:56:39;;;;;;;1.20;0.90;;;6.50;99.90;;;;;;5061034;28;20436;-85
2023/03/18 01:59:08;;;;;;;1.60;0.90;;;6.50;99.90;;;;;;5061181;28;20456;-85
2023/03/18 02:01:40;;;;;;;2.70;1.20;;;6.70;99.90;;;;;;5045932;28;20878;-85
2023/03/18 02:04:10;;;;;;;1.37;0.87;;;6.70;99.90;;;;;;5049614;28;20893;-86
2023/03/18 02:06:37;;;;;;;1.10;0.80;;;6.80;99.90;;;;;;5054440;28;20532;-85
2023/03/18 02:09:05;;;;;;;1.50;1.10;;;6.80;99.90;;;;;;5051419;28;21039;-85
2023/03/18 02:11:34;;;;;;;1.63;0.90;;;6.70;99.90;;;;;;5047898;28;20523;-84
2023/03/18 02:14:02;;;;;;;1.03;0.77;;;6.60;99.90;;;;;;5045906;28;20520;-85
2023/03/18 02:16:35;;;;;;;2.63;0.90;;;6.50;99.90;;;;;;5046855;28;20488;-85
2023/03/18 02:19:09;;;;;;;2.33;1.40;;;6.80;99.90;;;;;;5048528;28;20958;-85
2023/03/18 02:21:46;;;;;;;1.17;0.97;;;6.70;99.90;;;;;;5054115;28;20476;-85
2023/03/18 02:24:24;;;;;;;5.50;2.80;;;6.40;99.90;;;;;;5054982;28;20534;-84
2023/03/18 02:26:57;;;;;;;2.53;1.57;;;6.30;99.90;;;;;;5054888;28;20544;-85
2023/03/18 02:29:27;;;;;;;2.30;1.70;;;6.50;99.90;;;;;;5054748;28;20540;-85
2023/03/18 02:31:56;;;;;;;2.17;1.40;;;6.40;99.90;;;;;;5054807;28;20513;-85
2023/03/18 02:34:24;;;;;;;2.70;1.27;;;6.30;99.90;;;;;;5054599;28;20527;-84
2023/03/18 02:36:52;;;;;;;2.70;1.13;;;6.40;99.90;;;;;;5054641;28;20456;-84
2023/03/18 02:39:19;;;;;;;3.87;1.80;;;6.30;99.90;;;;;;5055236;28;20441;-85
2023/03/18 02:41:46;;;;;;;3.83;1.27;;;6.30;99.90;;;;;;5055136;28;20485;-85
2023/03/18 02:44:13;;;;;;;1.83;1.37;;;6.30;99.90;;;;;;5055216;28;20456;-85
2023/03/18 02:46:52;;;;;;;2.13;1.10;;;6.40;99.90;;;;;;5054955;28;20477;-84
2023/03/18 02:49:21;;;;;;;1.73;1.27;;;6.20;99.90;;;;;;5054254;28;20795;-85
2023/03/18 02:51:49;;;;;;;2.93;1.90;;;6.20;99.90;;;;;;5053888;28;20477;-85
2023/03/18 02:54:19;;;;;;;21.47;12.00;;;6.20;99.90;;;;;;5054255;28;20461;-85
2023/03/18 02:56:46;;;;;;;7.67;4.40;;;6.40;99.90;;;;;;5053710;28;20442;-85
2023/03/18 02:59:13;;;;;;;3.53;1.70;;;6.40;99.90;;;;;;5054094;28;20491;-86
2023/03/18 03:01:41;;;;;;;2.20;1.00;;;6.50;99.90;;;;;;5054129;28;20901;-85
2023/03/18 03:04:11;;;;;;;1.57;1.30;;;6.60;99.90;;;;;;5055420;28;20446;-85
2023/03/18 03:06:38;;;;;;;1.50;1.20;;;6.40;99.90;;;;;;5054896;28;20931;-85
2023/03/18 03:09:06;;;;;;;1.30;1.03;;;6.30;99.90;;;;;;5054872;28;20473;-85
2023/03/18 03:11:33;;;;;;;2.93;1.37;;;6.30;99.90;;;;;;5055989;28;20814;-85
2023/03/18 03:14:00;;;;;;;2.80;1.27;;;6.20;99.90;;;;;;5055314;28;20555;-85
2023/03/18 03:16:28;;;;;;;1.87;1.20;;;6.00;99.90;;;;;;5055038;28;20513;-85
2023/03/18 03:18:55;;;;;;;1.87;1.37;;;5.70;99.90;;;;;;5056087;28;20489;-85
2023/03/18 03:21:23;;;;;;;4.40;1.17;;;6.00;99.90;;;;;;5055263;28;20469;-86
2023/03/18 03:23:51;;;;;;;1.60;1.17;;;6.20;99.90;;;;;;5055757;28;20465;-85
2023/03/18 03:26:19;;;;;;;2.47;1.33;;;6.40;99.90;;;;;;5054688;28;20462;-85
2023/03/18 03:28:46;;;;;;;2.40;1.10;;;6.50;99.90;;;;;;5054780;28;20539;-85
2023/03/18 03:31:14;;;;;;;3.23;2.93;;;6.40;99.90;;;;;;5054562;28;20974;-85
2023/03/18 03:33:42;;;;;;;1.60;1.40;;;6.30;99.90;;;;;;5054723;28;20509;-85
2023/03/18 03:36:12;;;;;;;1.90;1.10;;;6.30;99.90;;;;;;5054647;28;20494;-85
2023/03/18 03:38:41;;;;;;;1.93;1.47;;;6.20;99.90;;;;;;5069800;28;20468;-87
2023/03/18 03:41:09;;;;;;;4.43;1.50;;;6.00;99.90;;;;;;5062097;28;20440;-84
2023/03/18 03:43:36;;;;;;;2.23;1.33;;;6.20;99.90;;;;;;5054587;28;20471;-85
2023/03/18 03:46:03;;;;;;;1.57;1.23;;;6.20;99.90;;;;;;5053892;28;20870;-85
2023/03/18 03:48:31;;;;;;;1.70;0.93;;;6.20;99.90;;;;;;5068825;28;20438;-89
2023/03/18 03:50:58;;;;;;;1.60;1.00;;;6.40;99.90;;;;;;5042234;28;20446;-83
2023/03/18 03:53:25;;;;;;;2.23;0.93;;;6.50;99.90;;;;;;5034266;28;20505;-85
2023/03/18 03:55:55;;;;;;;1.50;0.80;;;6.60;99.90;;;;;;5052866;28;20497;-85
2023/03/18 03:58:22;;;;;;;1.93;1.03;;;6.70;99.90;;;;;;5053032;28;20450;-85
2023/03/18 04:00:49;;;;;;;1.10;0.80;;;6.50;99.90;;;;;;5052996;28;20474;-85
2023/03/18 04:03:16;;;;;;;1.30;1.00;;;6.50;99.90;;;;;;5053001;28;20523;-86
2023/03/18 04:05:43;;;;;;;2.83;1.50;;;6.40;99.90;;;;;;5052990;28;20507;-85
2023/03/18 04:08:10;;;;;;;3.43;2.00;;;6.30;99.90;;;;;;5051978;28;20449;-85
2023/03/18 04:10:37;;;;;;;3.77;1.40;;;6.30;99.90;;;;;;5053843;28;20446;-85
2023/03/18 04:13:05;;;;;;;5.43;1.83;;;6.10;99.90;;;;;;5053905;28;20473;-85
2023/03/18 04:15:33;;;;;;;1.83;1.20;;;5.70;99.90;;;;;;5054536;28;20538;-85
2023/03/18 04:18:05;;;;;;;3.30;1.20;;;5.70;99.90;;;;;;5054208;28;20460;-85
2023/03/18 04:20:33;;;;;;;1.10;0.90;;;5.60;99.90;;;;;;5054137;28;20537;-85
2023/03/18 04:23:00;;;;;;;3.30;1.50;;;5.70;99.90;;;;;;5054239;28;20437;-86
2023/03/18 04:25:27;;;;;;;1.30;0.90;;;6.00;99.90;;;;;;5053450;28;20501;-87
2023/03/18 04:27:54;;;;;;;1.13;0.90;;;6.20;99.90;;;;;;5053373;28;20493;-84
2023/03/18 04:30:24;;;;;;;1.70;1.23;;;6.30;99.90;;;;;;5072376;22;20452;-50
2023/03/18 04:32:51;;;;;;;1.63;1.30;;;6.50;99.90;;;;;;5051798;28;20477;-51
2023/03/18 04:35:19;;;;;;;2.90;1.00;;;6.40;99.90;;;;;;5053214;28;20532;-49
2023/03/18 04:37:47;;;;;;;3.07;1.40;;;6.30;99.90;;;;;;5053340;28;20492;-50
2023/03/18 04:40:14;;;;;;;2.10;1.27;;;6.10;99.90;;;;;;5053550;28;20445;-50
2023/03/18 04:42:42;;;;;;;4.20;1.17;;;6.10;99.90;;;;;;5053206;28;20895;-54
2023/03/18 04:45:09;;;;;;;1.30;1.00;;;6.10;99.90;;;;;;5053621;28;20445;-52
2023/03/18 04:47:37;;;;;;;1.87;1.17;;;6.00;99.90;;;;;;5052966;28;20497;-52
2023/03/18 04:50:05;;;;;;;1.40;0.93;;;6.20;99.90;;;;;;5052172;28;20442;-50
2023/03/18 04:52:32;;;;;;;2.87;1.20;;;6.40;99.90;;;;;;5052596;28;20477;-50
2023/03/18 04:54:59;;;;;;;3.10;1.50;;;6.50;99.90;;;;;;5053302;28;20449;-52
2023/03/18 04:57:26;;;;;;;1.07;0.83;;;6.50;99.90;;;;;;5052981;28;20540;-53
2023/03/18 04:59:53;;;;;;;1.27;1.13;;;6.10;99.90;;;;;;5052201;28;20442;-52
2023/03/18 05:02:20;;;;;;;1.70;1.20;;;6.10;99.90;;;;;;5052225;28;20477;-54
2023/03/18 05:04:48;;;;;;;1.97;1.20;;;6.20;99.90;;;;;;5052061;28;20540;-51
2023/03/18 05:07:17;;;;;;;1.60;1.20;;;6.20;99.90;;;;;;5052691;28;20465;-50
2023/03/18 05:09:43;;;;;;;2.17;1.60;;;6.20;99.90;;;;;;5052364;28;20446;-52
2023/03/18 05:12:14;;;;;;;2.23;1.27;;;6.10;99.90;;;;;;5051786;28;20859;-50
2023/03/18 05:14:41;;;;;;;2.33;1.40;;;6.10;99.90;;;;;;5048782;28;20663;-50
2023/03/18 05:17:14;;;;;;;2.00;1.30;;;5.90;99.90;;;;;;5052562;28;20556;-51
2023/03/18 05:19:42;;;;;;;1.40;1.13;;;6.00;99.90;;;;;;5044273;28;20512;-52
2023/03/18 05:22:11;;;;;;;4.83;1.70;;;6.20;99.90;;;;;;5043243;28;20623;-51
2023/03/18 05:24:38;;;;;;;2.60;1.30;;;6.20;99.90;;;;;;5032495;28;20438;-52
2023/03/18 05:27:05;;;;;;;4.93;4.20;;;6.10;99.90;;;;;;5034760;28;20549;-50
2023/03/18 05:29:32;;;;;;;2.07;1.87;;;6.10;99.90;;;;;;5044607;28;20970;-51
2023/03/18 05:31:59;;;;;;;2.13;1.53;;;6.20;99.90;;;;;;5043097;28;20485;-50
2023/03/18 05:34:27;;;;;;;2.37;1.40;;;6.20;99.90;;;;;;5045168;28;20560;-52
2023/03/18 05:36:54;;;;;;;2.77;1.10;;;6.30;99.90;;;;;;5040207;28;20450;-51
2023/03/18 05:39:22;;;;;;;1.93;1.63;;;6.40;99.90;;;;;;5036854;28;20442;-51
2023/03/18 05:41:49;;;;;;;1.30;1.00;;;6.40;99.90;;;;;;5040953;28;20451;-50
2023/03/18 05:44:16;;;;;;;2.10;1.90;;;6.30;99.90;;;;;;5037673;28;20537;-51
2023/03/18 05:46:43;;;;;;;2.10;1.37;;;6.30;99.90;;;;;;5041635;28;20521;-50
2023/03/18 05:49:10;;;;;;;1.93;1.77;;;6.30;99.90;;;;;;5043114;28;20501;-50
2023/03/18 05:51:38;;;;;;;2.30;1.50;;;6.40;99.90;;;;;;5050218;28;20470;-50
2023/03/18 05:54:05;;;;;;;1.93;1.70;;;6.50;99.90;;;;;;5051180;28;20553;-52
2023/03/18 05:56:33;;;;;;;2.17;1.77;;;6.60;99.90;;;;;;5051233;28;21048;-52
2023/03/18 05:59:00;;;;;;;2.53;1.40;;;6.60;99.90;;;;;;5051345;28;20498;-51
2023/03/18 06:01:29;;;;;;;2.70;1.43;;;6.80;99.90;;;;;;5050803;28;20537;-53
2023/03/18 06:03:56;;;;;;;1.80;1.40;;;6.80;99.90;;;;;;5051096;28;20948;-52
2023/03/18 06:06:23;;;;;;;3.13;2.07;;;6.90;99.90;;;;;;5051320;28;20466;-52
2023/03/18 06:08:50;;;;;;;5.00;2.80;;;6.90;99.90;;;;;;5043972;28;20520;-51
2023/03/18 06:11:17;;;;;;;2.80;1.80;;;6.50;99.90;;;;;;5044605;28;20524;-51
2023/03/18 06:13:45;;;;;;;2.50;2.10;;;6.50;99.90;;;;;;5051193;28;20476;-51
2023/03/18 06:16:13;;;;;;;3.60;2.33;;;6.60;99.90;;;;;;5051537;28;20532;-52
2023/03/18 06:18:40;;;;;;;2.40;1.80;;;6.50;99.90;;;;;;5051381;28;20469;-52
2023/03/18 06:21:09;;;;;;;4.30;2.20;;;6.30;99.90;;;;;;5051256;28;20492;-49
2023/03/18 06:23:38;;;;;;;3.33;2.07;;;6.20;99.90;;;;;;5050852;28;20441;-50
2023/03/18 06:26:06;;;;;;;6.00;5.50;;;6.50;99.90;;;;;;5049258;28;20682;-50
2023/03/18 06:28:33;;;;;;;15.20;11.53;;;6.60;99.90;;;;;;5049160;28;20548;-52
2023/03/18 06:31:02;;;;;;;8.27;7.47;;;6.70;99.90;;;;;;5049211;28;20489;-51
2023/03/18 06:33:29;;;;;;;2.73;2.43;;;6.80;99.90;;;;;;5049686;28;20528;-51
2023/03/18 06:35:59;;;;;;;2.60;1.67;;;6.70;99.90;;;;;;5050667;28;20981;-50
2023/03/18 06:38:26;;;;;;;3.63;2.70;;;6.70;99.90;;;;;;5050953;28;20470;-49
2023/03/18 06:40:53;;;;;;;4.10;3.13;;;6.70;99.90;;;;;;5049433;28;20503;-51
2023/03/18 06:43:20;;;;;;;5.50;3.37;;;6.80;99.90;;;;;;5050665;28;20448;-50
2023/03/18 06:45:48;;;;;;;5.73;3.90;;;6.60;99.90;;;;;;5041201;28;21018;-51
2023/03/18 06:48:17;;;;;;;3.33;2.57;;;6.30;99.90;;;;;;5050784;28;20545;-49
2023/03/18 06:50:44;;;;;;;4.90;2.60;;;6.00;99.90;;;;;;5050691;28;20476;-51
2023/03/18 06:53:11;;;;;;;3.60;2.80;;;6.20;99.90;;;;;;5052752;28;20520;-52
2023/03/18 06:55:39;;;;;;;4.23;2.70;;;6.50;99.90;;;;;;5054469;28;20448;-52
2023/03/18 06:58:06;;;;;;;2.90;2.60;;;6.70;99.90;;;;;;5046683;28;20549;-50
2023/03/18 07:00:34;;;;;;;4.80;2.23;;;6.70;99.90;;;;;;5040166;28;20477;-50
2023/03/18 07:03:01;;;;;;;3.07;2.43;;;6.80;99.90;;;;;;5054295;28;20442;-51
2023/03/18 07:05:29;;;;;;;6.30;4.40;;;7.00;99.90;;;;;;5053882;28;20536;-51
2023/03/18 07:07:57;;;;;;;5.43;4.10;;;7.00;99.90;;;;;;5049513;28;20545;-50
2023/03/18 07:10:28;;;;;;;5.73;3.70;;;7.10;99.90;;;;;;5054106;28;20441;-50
2023/03/18 07:12:56;;;;;;;5.20;4.67;;;7.00;99.90;;;;;;5054375;28;20899;-51
2023/03/18 07:15:25;;;;;;;7.23;5.00;;;6.50;99.90;;;;;;5053003;28;20521;-51
2023/03/18 07:17:52;;;;;;;4.00;3.20;;;6.40;99.90;;;;;;5048853;28;20833;-50
2023/03/18 07:20:21;;;;;;;3.70;3.40;;;6.50;99.90;;;;;;5034825;28;20438;-52
2023/03/18 07:22:50;;;;;;;3.67;2.83;;;6.50;99.90;;;;;;5051127;28;20638;-50
2023/03/18 07:25:17;;;;;;;3.70;3.40;;;6.60;99.90;;;;;;5051233;28;20512;-52
2023/03/18 07:27:45;;;;;;;5.57;3.00;;;6.70;99.90;;;;;;5041843;28;20457;-50
2023/03/18 07:30:13;;;;;;;3.30;2.40;;;6.90;99.90;;;;;;5051647;28;20477;-51
2023/03/18 07:32:40;;;;;;;4.30;2.50;;;7.00;99.90;;;;;;5043907;28;20455;-51
2023/03/18 07:35:09;;;;;;;4.43;2.90;;;7.00;99.90;;;;;;5041233;28;21028;-50
2023/03/18 07:37:36;;;;;;;3.63;2.90;;;7.00;99.90;;;;;;5045236;28;20814;-50
2023/03/18 07:40:05;;;;;;;3.80;3.47;;;7.00;99.90;;;;;;5042600;28;20430;-50
2023/03/18 07:42:32;;;;;;;4.63;3.20;;;7.00;99.90;;;;;;5040224;28;20492;-51
2023/03/18 07:44:59;;;;;;;4.97;3.73;;;7.20;99.90;;;;;;5049975;28;20447;-50
2023/03/18 07:47:26;;;;;;;6.13;5.50;;;7.40;99.90;;;;;;5044698;28;20899;-50
2023/03/18 07:49:53;;;;;;;5.77;4.67;;;7.50;99.90;;;;;;5044890;28;20465;-50
2023/03/18 07:52:20;;;;;;;25.20;8.77;;;7.60;99.90;;;;;;5044595;28;21051;-52
2023/03/18 07:54:47;;;;;;;10.33;8.13;;;7.60;99.90;;;;;;5046073;28;20469;-51
2023/03/18 07:57:16;;;;;;;8.50;7.17;;;7.70;99.90;;;;;;5042135;28;20512;-51
2023/03/18 07:59:42;;;;;;;8.60;6.70;;;7.70;99.90;;;;;;5045790;28;20504;-52
2023/03/18 08:02:13;;;;;;;7.43;6.43;;;7.90;99.90;;;;;;5040778;28;20433;-50
2023/03/18 08:04:40;;;;;;;6.47;5.83;;;7.90;99.90;;;;;;5041398;28;20442;-51
2023/03/18 08:07:07;;;;;;;7.93;4.83;;;8.00;99.90;;;;;;5045443;28;20552;-51
2023/03/18 08:09:34;;;;;;;2.63;2.33;;;8.00;99.90;;;;;;5045148;28;20450;-52
2023/03/18 08:12:01;;;;;;;3.03;2.73;;;7.90;99.90;;;;;;5041888;28;20466;-52
2023/03/18 08:14:30;;;;;;;3.07;2.77;;;8.00;99.90;;;;;;5045640;28;20481;-51
2023/03/18 08:16:57;;;;;;;2.20;2.00;;;8.00;99.90;;;;;;5040706;28;20470;-51
2023/03/18 08:19:23;;;;;;;2.50;1.90;;;8.10;99.90;;;;;;5042029;28;20437;-51
2023/03/18 08:21:50;;;;;;;4.30;2.70;;;8.30;99.90;;;;;;5040571;28;20529;-51
2023/03/18 08:24:17;;;;;;;3.10;2.80;;;8.30;99.90;;;;;;5042551;28;20876;-51
2023/03/18 08:26:44;;;;;;;5.57;4.50;;;8.50;99.90;;;;;;5040592;28;20524;-51
2023/03/18 08:29:11;;;;;;;7.47;5.77;;;8.60;99.90;;;;;;5043095;28;20664;-51
2023/03/18 08:31:39;;;;;;;5.23;4.43;;;8.70;99.90;;;;;;5040144;28;20940;-53
2023/03/18 08:34:07;;;;;;;4.80;4.30;;;8.70;99.90;;;;;;5047629;28;20517;-53
2023/03/18 08:36:34;;;;;;;3.50;2.90;;;8.80;99.90;;;;;;5041149;28;20969;-52
2023/03/18 08:39:01;;;;;;;6.37;2.97;;;8.80;99.90;;;;;;5042566;28;20442;-51
2023/03/18 08:41:28;;;;;;;2.17;1.97;;;8.90;99.90;;;;;;5040708;28;20542;-52
2023/03/18 08:43:56;;;;;;;2.60;2.40;;;8.90;99.90;;;;;;5040604;28;20958;-51
2023/03/18 08:46:23;;;;;;;4.20;2.70;;;9.00;99.90;;;;;;5042342;28;20448;-52
2023/03/18 08:48:53;;;;;;;3.87;3.10;;;8.90;99.90;;;;;;5042935;28;20491;-51
2023/03/18 08:51:21;;;;;;;3.23;2.30;;;8.90;99.90;;;;;;5048420;28;20470;-51
2023/03/18 08:53:48;;;;;;;3.23;2.40;;;9.00;99.90;;;;;;5051044;28;20443;-51
2023/03/18 08:56:15;;;;;;;3.17;2.50;;;9.10;99.90;;;;;;5050889;28;20472;-51
2023/03/18 08:58:43;;;;;;;2.27;2.07;;;9.10;99.90;;;;;;5050969;28;20531;-53
2023/03/18 09:01:10;;;;;;;1.83;1.50;;;9.20;99.90;;;;;;5042706;28;20442;-51
2023/03/18 09:03:37;;;;;;;2.30;1.87;;;9.30;99.90;;;;;;5041877;28;20539;-51
2023/03/18 09:06:06;;;;;;;2.40;1.33;;;9.30;99.90;;;;;;5040873;28;20474;-51
2023/03/18 09:08:33;;;;;;;3.00;1.27;;;9.30;99.90;;;;;;5040448;28;20468;-51
2023/03/18 09:11:00;;;;;;;6.07;1.47;;;9.40;99.90;;;;;;5041319;28;20901;-51
2023/03/18 09:13:27;;;;;;;1.60;1.50;;;9.50;99.90;;;;;;5039754;28;20877;-52
2023/03/18 09:15:54;;;;;;;1.60;1.20;;;9.50;99.90;;;;;;5032242;28;20507;-51
2023/03/18 09:18:23;;;;;;;1.40;1.20;;;9.60;99.90;;;;;;5029832;28;20555;-51
2023/03/18 09:20:51;;;;;;;1.80;1.30;;;9.70;99.90;;;;;;5041397;28;20910;-52
2023/03/18 09:23:20;;;;;;;2.70;1.10;;;9.90;99.90;;;;;;5043807;28;21806;-51
2023/03/18 09:25:47;;;;;;;1.90;1.50;;;9.90;99.90;;;;;;5041253;28;20475;-51
2023/03/18 09:28:14;;;;;;;2.50;1.50;;;9.90;99.90;;;;;;5040435;28;20469;-52
2023/03/18 09:30:42;;;;;;;2.17;1.03;;;9.90;99.90;;;;;;5043702;28;20903;-51
2023/03/18 09:33:10;;;;;;;1.90;1.10;;;9.90;99.90;;;;;;5046987;28;20523;-53
2023/03/18 09:35:37;;;;;;;1.40;1.10;;;9.90;99.90;;;;;;5047607;28;20489;-52
2023/03/18 09:38:05;;;;;;;7.00;1.20;;;10.00;99.90;;;;;;5047780;28;20548;-51
2023/03/18 09:40:36;;;;;;;2.87;1.87;;;10.10;99.90;;;;;;5047839;28;20448;-51
2023/03/18 09:43:19;;;;;;;1.47;1.37;;;10.00;99.90;;;;;;5047686;28;20459;-51
2023/03/18 09:45:58;;;;;;;3.27;1.47;;;10.10;99.90;;;;;;5047497;28;20452;-52
2023/03/18 09:48:58;;;;;;;1.93;1.60;;;10.20;99.90;;;;;;5047818;28;20468;-51
2023/03/18 09:51:40;;;;;;;1.83;1.73;;;10.30;99.90;;;;;;5019845;28;20455;-52
2023/03/18 09:54:13;;;;;;;2.00;1.70;;;10.70;99.90;;;;;;5036022;28;20859;-51
2023/03/18 09:56:43;;;;;;;4.60;2.13;;;10.70;99.90;;;;;;5039574;28;20453;-51
2023/03/18 09:59:18;;;;;;;3.23;1.57;;;10.70;99.90;;;;;;5036575;28;20446;-52
2023/03/18 10:01:48;;;;;;;2.63;1.80;;;10.80;99.90;;;;;;5036618;28;20479;-51
2023/03/18 10:04:20;;;;;;;1.77;1.67;;;10.70;99.90;;;;;;5036469;28;20449;-51
2023/03/18 10:06:50;;;;;;;2.27;1.80;;;10.70;99.90;;;;;;5036450;28;20438;-51
2023/03/18 10:09:23;;;;;;;1.93;1.53;;;10.80;99.90;;;;;;5036824;28;20481;-51
2023/03/18 10:11:53;;;;;;;1.80;1.60;;;10.90;99.90;;;;;;5035698;28;20533;-51
2023/03/18 10:14:33;;;;;;;1.90;1.40;;;10.80;99.90;;;;;;5037142;28;20515;-51
2023/03/18 10:17:10;;;;;;;3.10;1.50;;;10.90;99.90;;;;;;5036543;28;20532;-51
2023/03/18 10:19:42;;;;;;;2.03;1.50;;;10.90;99.90;;;;;;5040014;28;20440;-51
2023/03/18 10:22:26;;;;;;;2.03;1.40;;;11.20;99.90;;;;;;5048993;28;20534;-52
2023/03/18 10:25:03;;;;;;;2.53;1.90;;;11.30;99.90;;;;;;5049425;28;20522;-52
2023/03/18 10:27:42;;;;;;;4.70;1.97;;;11.40;99.90;;;;;;5052656;28;20464;-51
2023/03/18 10:30:33;;;;;;;2.27;1.70;;;11.50;99.90;;;;;;5052428;28;20802;-51
2023/03/18 10:33:06;;;;;;;2.20;1.80;;;11.70;99.90;;;;;;5052283;28;20436;-53
2023/03/18 10:35:40;;;;;;;1.87;1.30;;;11.80;99.90;;;;;;5053804;28;21019;-51
2023/03/18 10:38:17;;;;;;;2.40;1.63;;;11.80;99.90;;;;;;5054182;28;20551;-52
2023/03/18 10:40:46;;;;;;;1.63;1.53;;;11.70;99.90;;;;;;5053927;28;20547;-52
2023/03/18 10:43:18;;;;;;;1.73;1.47;;;11.70;99.90;;;;;;5054369;28;20858;-51
2023/03/18 10:45:47;;;;;;;2.07;1.27;;;11.50;99.90;;;;;;5053398;28;20818;-51
2023/03/18 10:48:21;;;;;;;2.53;1.80;;;11.70;99.90;;;;;;5054135;28;20550;-53
2023/03/18 10:50:56;;;;;;;2.67;1.53;;;11.90;99.90;;;;;;5053397;28;20492;-51
2023/03/18 10:53:28;;;;;;;2.77;1.93;;;12.10;99.90;;;;;;5053667;28;20491;-51
2023/03/18 10:56:03;;;;;;;2.57;1.80;;;12.20;99.90;;;;;;5052789;28;20511;-54
2023/03/18 10:58:31;;;;;;;1.57;1.30;;;12.40;99.90;;;;;;5044370;28;20462;-51
2023/03/18 11:00:58;;;;;;;2.10;1.37;;;12.50;99.90;;;;;;5053003;28;20896;-51
2023/03/18 11:03:28;;;;;;;2.10;1.70;;;12.40;99.90;;;;;;5053117;28;20449;-52
2023/03/18 11:05:57;;;;;;;2.90;2.03;;;12.30;99.90;;;;;;5053321;28;20520;-52
2023/03/18 11:08:33;;;;;;;2.70;1.70;;;12.40;99.90;;;;;;5053025;28;20500;-51
2023/03/18 11:11:13;;;;;;;3.63;1.67;;;12.30;99.90;;;;;;5053671;28;20451;-51
2023/03/18 11:13:47;;;;;;;2.07;1.70;;;12.70;99.90;;;;;;5052662;28;20472;-51
2023/03/18 11:16:23;;;;;;;4.13;2.00;;;12.50;99.90;;;;;;5052761;28;20476;-51
2023/03/18 11:18:53;;;;;;;3.87;1.57;;;12.80;99.90;;;;;;5038435;28;20474;-52
2023/03/18 11:21:20;;;;;;;2.60;1.90;;;13.20;99.90;;;;;;5046378;28;20483;-52
2023/03/18 11:24:09;;;;;;;2.43;2.00;;;13.20;99.90;;;;;;5040577;28;20532;-51
2023/03/18 11:26:45;;;;;;;2.67;1.50;;;13.10;99.90;;;;;;5045302;28;20456;-52
2023/03/18 11:29:17;;;;;;;3.67;1.77;;;12.80;99.90;;;;;;5036725;28;21241;-53
2023/03/18 11:31:56;;;;;;;1.67;1.40;;;13.00;99.90;;;;;;5043962;28;20445;-55
2023/03/18 11:34:24;;;;;;;1.77;1.63;;;12.90;99.90;;;;;;5043975;28;20458;-52
2023/03/18 11:36:57;;;;;;;2.70;1.83;;;13.00;99.90;;;;;;5043236;28;20477;-52
2023/03/18 11:39:26;;;;;;;2.07;1.47;;;12.90;99.90;;;;;;5036895;28;20447;-52
2023/03/18 11:41:53;;;;;;;2.03;1.60;;;13.30;99.90;;;;;;5038462;28;20684;-54
2023/03/18 11:44:28;;;;;;;3.67;2.43;;;13.60;99.90;;;;;;5046857;28;20952;-52
2023/03/18 11:47:03;;;;;;;1.90;1.60;;;13.70;99.90;;;;;;5046803;28;20472;-53
2023/03/18 11:49:31;;;;;;;1.70;1.57;;;13.60;99.90;;;;;;5042532;28;20542;-52
2023/03/18 11:52:21;;;;;;;2.03;1.50;;;13.70;99.90;;;;;;5043637;28;20450;-52
2023/03/18 11:55:03;;;;;;;3.00;1.30;;;14.10;99.90;;;;;;5045718;28;21008;-52
2023/03/18 11:57:42;;;;;;;3.20;2.13;;;14.10;99.90;;;;;;5045978;28;20462;-53
2023/03/18 12:00:24;;;;;;;4.90;1.43;;;14.20;99.90;;;;;;5047472;28;20849;-51
2023/03/18 12:03:18;;;;;;;2.30;1.50;;;14.40;99.90;;;;;;5043685;28;20875;-52
2023/03/18 12:06:05;;;;;;;1.83;1.40;;;14.60;99.90;;;;;;5047258;28;20476;-51
2023/03/18 12:08:43;;;;;;;6.30;1.93;;;14.20;99.90;;;;;;5046782;28;20480;-53
2023/03/18 12:11:18;;;;;;;2.40;1.60;;;14.30;99.90;;;;;;5049879;28;20521;-51
2023/03/18 12:13:55;;;;;;;1.93;1.50;;;14.30;99.90;;;;;;5048977;28;20452;-52
2023/03/18 12:16:38;;;;;;;6.77;2.03;;;14.30;99.90;;;;;;5047349;28;20487;-54
2023/03/18 12:19:32;;;;;;;2.70;1.67;;;14.30;99.90;;;;;;5048783;28;20503;-52
2023/03/18 12:22:24;;;;;;;1.70;1.40;;;14.50;99.90;;;;;;5044626;28;20540;-52
2023/03/18 12:25:16;;;;;;;1.90;1.47;;;14.50;99.90;;;;;;5039464;28;20524;-53
2023/03/18 12:27:51;;;;;;;10.03;2.10;;;14.40;99.90;;;;;;5035948;28;20490;-53
2023/03/18 12:30:39;;;;;;;1.50;1.40;;;14.40;99.90;;;;;;5040706;28;20450;-52
2023/03/18 12:33:18;;;;;;;5.00;2.07;;;14.40;99.90;;;;;;5047935;28;21042;-52
2023/03/18 12:35:54;;;;;;;3.60;2.00;;;14.60;99.90;;;;;;5046066;28;20559;-53
2023/03/18 12:38:55;;;;;;;2.53;2.10;;;14.80;99.90;;;;;;5040276;28;20499;-52
2023/03/18 12:41:32;;;;;;;3.13;2.43;;;15.00;99.90;;;;;;5042979;28;20570;-52
2023/03/18 12:44:22;;;;;;;3.00;1.70;;;15.20;99.90;;;;;;5041666;28;20475;-52
2023/03/18 12:46:55;;;;;;;24.57;19.80;;;15.40;99.90;;;;;;5040467;28;20439;-52
2023/03/18 12:49:28;;;;;;;2.43;2.03;;;15.10;99.90;;;;;;5045897;28;20487;-55
2023/03/18 12:52:01;;;;;;;2.63;2.27;;;15.20;99.90;;;;;;5040758;28;20538;-51
2023/03/18 12:54:32;;;;;;;3.27;2.27;;;15.10;99.90;;;;;;5041486;28;20446;-52
2023/03/18 12:57:02;;;;;;;4.83;2.30;;;15.10;99.90;;;;;;5049489;28;20574;-52
2023/03/18 12:59:36;;;;;;;2.07;1.57;;;15.00;99.90;;;;;;5049610;28;20477;-53
2023/03/18 13:02:26;;;;;;;3.80;1.90;;;14.90;99.90;;;;;;5050831;28;20442;-53
2023/03/18 13:04:59;;;;;;;4.67;2.30;;;14.80;99.90;;;;;;5050950;28;20449;-53
2023/03/18 13:07:36;;;;;;;3.40;2.23;;;14.70;99.90;;;;;;5050369;28;20545;-52